createdAt,value
2022-12-04T00:01:30.046Z,45.80
2022-12-04T00:04:03.655Z,45.20
2022-12-04T00:06:31.648Z,45.40
2022-12-04T00:08:58.887Z,38.78
2022-12-04T00:11:29.990Z,47.67
2022-12-04T00:14:06.879Z,39.03
2022-12-04T00:16:34.200Z,48.28
2022-12-04T00:19:03.610Z,47.35
2022-12-04T00:21:31.661Z,49.63
2022-12-04T00:23:59.082Z,49.45
2022-12-04T00:26:28.967Z,53.03
2022-12-04T00:28:57.417Z,53.38
2022-12-04T00:31:28.780Z,43.33
2022-12-04T00:33:57.702Z,49.72
2022-12-04T00:36:28.677Z,45.75
2022-12-04T00:38:59.079Z,53.05
2022-12-04T00:41:29.305Z,52.70
2022-12-04T00:43:57.670Z,46.00
2022-12-04T00:46:24.519Z,52.67
2022-12-04T00:48:53.884Z,45.35
2022-12-04T00:51:24.075Z,51.42
2022-12-04T00:53:54.201Z,52.67
2022-12-04T00:56:28.675Z,46.55
2022-12-04T00:58:59.724Z,53.13
2022-12-04T01:01:28.989Z,49.42
2022-12-04T01:03:58.521Z,52.20
2022-12-04T01:06:34.353Z,53.55
2022-12-04T01:09:04.799Z,55.55
2022-12-04T01:11:33.725Z,46.28
2022-12-04T01:14:01.305Z,42.50
2022-12-04T01:16:35.017Z,51.95
2022-12-04T01:19:08.874Z,53.20
2022-12-04T01:21:38.642Z,42.30
2022-12-04T01:24:08.993Z,51.45
2022-12-04T01:26:37.659Z,48.22
2022-12-04T01:29:05.045Z,45.33
2022-12-04T01:31:34.446Z,45.78
2022-12-04T01:34:01.704Z,45.35
2022-12-04T01:36:29.280Z,47.03
2022-12-04T01:38:58.559Z,47.38
2022-12-04T01:41:29.273Z,54.13
2022-12-04T01:44:17.537Z,51.88
2022-12-04T01:46:59.692Z,54.03
2022-12-04T01:49:48.569Z,52.92
2022-12-04T01:52:24.625Z,49.67
2022-12-04T01:54:58.631Z,46.92
2022-12-04T01:57:32.818Z,50.42
2022-12-04T02:00:04.891Z,47.75
2022-12-04T02:02:38.855Z,45.38
2022-12-04T02:05:22.336Z,50.28
2022-12-04T02:07:58.786Z,44.25
2022-12-04T02:10:39.963Z,45.08
2022-12-04T02:13:14.245Z,41.53
2022-12-04T02:16:19.606Z,46.15
2022-12-04T02:19:13.093Z,50.35
2022-12-04T02:21:49.799Z,39.90
2022-12-04T02:24:28.617Z,47.47
2022-12-04T02:27:03.094Z,43.33
2022-12-04T02:29:48.699Z,46.88
2022-12-04T02:32:17.720Z,39.03
2022-12-04T02:34:54.433Z,39.13
2022-12-04T02:37:37.915Z,45.00
2022-12-04T02:40:19.136Z,47.72
2022-12-04T02:42:54.117Z,45.50
2022-12-04T02:45:28.241Z,45.45
2022-12-04T02:47:58.809Z,47.50
2022-12-04T02:50:27.929Z,51.83
2022-12-04T02:53:09.026Z,38.92
2022-12-04T02:55:43.347Z,46.40
2022-12-04T02:58:18.837Z,43.85
2022-12-04T03:00:49.000Z,38.30
2022-12-04T03:03:23.187Z,37.50
2022-12-04T03:06:13.279Z,42.90
2022-12-04T03:08:48.866Z,50.00
2022-12-04T03:11:17.718Z,44.03
2022-12-04T03:13:57.899Z,48.05
2022-12-04T03:16:33.300Z,49.95
2022-12-04T03:19:26.782Z,46.50
2022-12-04T03:22:00.347Z,51.10
2022-12-04T03:24:38.873Z,53.03
2022-12-04T03:27:38.695Z,41.35
2022-12-04T03:30:19.198Z,40.55
2022-12-04T03:32:52.459Z,47.85
2022-12-04T03:35:28.373Z,41.85
2022-12-04T03:38:14.377Z,48.60
2022-12-04T03:40:58.881Z,46.05
2022-12-04T03:43:39.025Z,42.15
2022-12-04T03:46:12.789Z,41.90
2022-12-04T03:48:48.930Z,46.25
2022-12-04T03:51:23.246Z,47.38
2022-12-04T03:53:49.747Z,50.67
2022-12-04T03:56:23.132Z,41.15
2022-12-04T03:58:57.603Z,40.28
2022-12-04T04:01:33.562Z,45.50
2022-12-04T04:04:04.329Z,45.47
2022-12-04T04:06:52.362Z,44.95
2022-12-04T04:09:32.612Z,50.65
2022-12-04T04:12:09.009Z,45.80
2022-12-04T04:15:04.425Z,49.08
2022-12-04T04:17:53.437Z,50.05
2022-12-04T04:20:48.572Z,46.28
2022-12-04T04:23:39.893Z,46.80
2022-12-04T04:26:09.880Z,50.42
2022-12-04T04:28:47.312Z,48.85
2022-12-04T04:31:30.017Z,45.50
2022-12-04T04:34:07.619Z,45.20
2022-12-04T04:36:49.940Z,46.92
2022-12-04T04:39:53.556Z,42.70
2022-12-04T04:42:28.465Z,49.88
2022-12-04T04:45:08.275Z,41.08
2022-12-04T04:47:44.492Z,50.42
2022-12-04T04:50:17.479Z,54.05
2022-12-04T04:52:58.633Z,50.00
2022-12-04T04:55:27.252Z,53.72
2022-12-04T04:57:54.223Z,43.95
2022-12-04T05:00:23.084Z,59.05
2022-12-04T05:02:50.557Z,47.35
2022-12-04T05:05:19.077Z,48.25
2022-12-04T05:07:47.047Z,54.15
2022-12-04T05:10:19.224Z,59.03
2022-12-04T05:12:46.849Z,53.55
2022-12-04T05:15:13.580Z,65.05
2022-12-04T05:17:40.435Z,51.45
2022-12-04T05:20:13.557Z,49.25
2022-12-04T05:22:41.878Z,56.00
2022-12-04T05:25:18.137Z,62.97
2022-12-04T05:27:44.763Z,61.83
2022-12-04T05:30:13.764Z,51.17
2022-12-04T05:32:42.374Z,56.65
2022-12-04T05:35:11.609Z,59.35
2022-12-04T05:37:42.375Z,61.08
2022-12-04T05:40:09.917Z,53.67
2022-12-04T05:42:38.994Z,51.55
2022-12-04T05:45:08.824Z,68.38
2022-12-04T05:47:44.531Z,62.28
2022-12-04T05:50:14.095Z,66.40
2022-12-04T05:52:42.318Z,62.75
2022-12-04T05:55:09.498Z,57.47
2022-12-04T05:57:37.934Z,60.10
2022-12-04T06:00:08.938Z,59.20
2022-12-04T06:02:39.134Z,61.47
2022-12-04T06:05:07.537Z,67.95
2022-12-04T06:07:34.161Z,54.50
2022-12-04T06:10:03.555Z,57.47
2022-12-04T06:12:31.577Z,59.47
2022-12-04T06:14:58.924Z,55.38
2022-12-04T06:17:27.229Z,62.50
2022-12-04T06:19:57.922Z,62.78
2022-12-04T06:22:27.875Z,54.05
2022-12-04T06:24:54.479Z,71.63
2022-12-04T06:27:28.296Z,56.30
2022-12-04T06:29:58.128Z,54.40
2022-12-04T06:32:25.348Z,53.65
2022-12-04T06:34:58.078Z,63.13
2022-12-04T06:37:26.998Z,55.03
2022-12-04T06:39:53.880Z,60.00
2022-12-04T06:42:23.759Z,57.45
2022-12-04T06:44:52.087Z,64.55
2022-12-04T06:47:19.002Z,49.28
2022-12-04T06:49:49.353Z,58.95
2022-12-04T06:52:18.129Z,62.38
2022-12-04T06:54:44.797Z,58.17
2022-12-04T06:57:13.759Z,64.93
2022-12-04T06:59:43.503Z,60.25
2022-12-04T07:02:12.498Z,54.45
2022-12-04T07:04:39.497Z,67.43
2022-12-04T07:07:13.231Z,57.17
2022-12-04T07:09:39.719Z,57.80
2022-12-04T07:12:09.572Z,60.33
2022-12-04T07:14:39.341Z,64.75
2022-12-04T07:17:15.062Z,62.08
2022-12-04T07:19:48.905Z,56.10
2022-12-04T07:22:37.970Z,68.93
2022-12-04T07:25:08.798Z,71.07
2022-12-04T07:27:37.923Z,66.30
2022-12-04T07:30:15.808Z,54.20
2022-12-04T07:32:44.741Z,68.50
2022-12-04T07:35:13.779Z,57.22
2022-12-04T07:37:41.782Z,60.30
2022-12-04T07:40:09.188Z,66.43
2022-12-04T07:42:36.782Z,59.50
2022-12-04T07:45:05.585Z,73.20
2022-12-04T07:47:37.556Z,60.17
2022-12-04T07:50:07.343Z,57.75
2022-12-04T07:52:41.876Z,86.22
2022-12-04T07:55:09.500Z,66.53
2022-12-04T07:57:38.573Z,58.78
2022-12-04T08:00:12.367Z,64.18
2022-12-04T08:02:39.393Z,59.47
2022-12-04T08:05:07.314Z,58.78
2022-12-04T08:07:34.097Z,51.25
2022-12-04T08:10:03.996Z,62.00
2022-12-04T08:12:33.597Z,56.47
2022-12-04T08:15:01.326Z,53.20
2022-12-04T08:17:38.814Z,68.90
2022-12-04T08:20:32.449Z,62.03
2022-12-04T08:22:59.063Z,60.65
2022-12-04T08:25:38.911Z,59.33
2022-12-04T08:28:07.872Z,51.10
2022-12-04T08:30:37.258Z,55.60
2022-12-04T08:33:04.396Z,55.42
2022-12-04T08:35:32.427Z,63.47
2022-12-04T08:37:58.958Z,51.70
2022-12-04T08:40:27.011Z,56.67
2022-12-04T08:42:53.847Z,64.82
2022-12-04T08:45:21.957Z,56.17
2022-12-04T08:47:52.590Z,50.13
2022-12-04T08:50:19.354Z,59.75
2022-12-04T08:52:46.518Z,53.65
2022-12-04T08:57:44.241Z,47.78
2022-12-04T09:04:09.178Z,48.50
2022-12-04T09:06:37.802Z,50.83
2022-12-04T09:09:47.891Z,57.65
2022-12-04T09:12:15.029Z,46.13
2022-12-04T09:14:48.262Z,47.97
2022-12-04T09:17:14.842Z,52.55
2022-12-04T09:19:44.455Z,47.83
2022-12-04T09:22:13.460Z,55.92
2022-12-04T09:25:43.269Z,55.80
2022-12-04T09:28:13.636Z,48.28
2022-12-04T09:31:38.060Z,53.63
2022-12-04T09:35:01.954Z,54.63
2022-12-04T09:37:29.713Z,59.08
2022-12-04T09:39:59.326Z,49.05
2022-12-04T09:42:53.853Z,54.97
2022-12-04T09:45:26.827Z,49.47
2022-12-04T09:47:58.949Z,56.35
2022-12-04T09:50:42.836Z,49.85
2022-12-04T09:53:58.593Z,59.22
2022-12-04T09:56:28.941Z,57.80
2022-12-04T09:59:24.471Z,50.88
2022-12-04T10:02:04.515Z,50.22
2022-12-04T10:04:33.097Z,48.78
2022-12-04T10:07:46.788Z,48.90
2022-12-04T10:10:24.358Z,51.63
2022-12-04T10:12:52.146Z,56.85
2022-12-04T10:15:37.660Z,61.42
2022-12-04T10:18:07.779Z,54.35
2022-12-04T10:21:02.999Z,49.28
2022-12-04T10:23:53.046Z,42.30
2022-12-04T10:26:27.996Z,58.15
2022-12-04T10:29:04.589Z,46.58
2022-12-04T10:31:37.935Z,47.20
2022-12-04T10:34:23.044Z,50.00
2022-12-04T10:37:43.495Z,48.38
2022-12-04T10:40:21.868Z,50.03
2022-12-04T10:43:01.941Z,50.35
2022-12-04T10:45:29.366Z,50.40
2022-12-04T10:47:56.655Z,48.42
2022-12-04T10:50:26.733Z,52.33
2022-12-04T10:52:53.424Z,55.05
2022-12-04T10:55:39.863Z,46.67
2022-12-04T10:58:23.183Z,42.65
2022-12-04T11:01:28.046Z,41.00
2022-12-04T11:04:09.350Z,48.50
2022-12-04T11:06:38.758Z,50.15
2022-12-04T11:09:06.610Z,47.35
2022-12-04T11:11:36.450Z,49.28
2022-12-04T11:14:13.848Z,43.13
2022-12-04T11:16:52.370Z,49.35
2022-12-04T11:19:28.888Z,45.60
2022-12-04T11:22:08.283Z,50.88
2022-12-04T11:24:42.021Z,44.65
2022-12-04T11:27:32.633Z,45.13
2022-12-04T11:30:18.654Z,45.55
2022-12-04T11:32:49.554Z,42.05
2022-12-04T11:35:23.346Z,40.72
2022-12-04T11:38:08.436Z,40.38
2022-12-04T11:41:07.565Z,35.63
2022-12-04T11:43:39.127Z,40.17
2022-12-04T11:46:23.993Z,43.75
2022-12-04T11:48:53.995Z,42.78
2022-12-04T11:51:58.626Z,37.50
2022-12-04T11:54:32.515Z,40.30
2022-12-04T11:57:24.352Z,40.58
2022-12-04T12:00:37.952Z,40.88
2022-12-04T12:03:12.750Z,37.28
2022-12-04T12:05:39.629Z,38.08
2022-12-04T12:08:09.111Z,35.95
2022-12-04T12:10:57.943Z,36.10
2022-12-04T12:13:37.294Z,34.03
2022-12-04T12:16:29.395Z,33.05
2022-12-04T12:19:08.769Z,29.73
2022-12-04T12:22:14.306Z,32.33
2022-12-04T12:24:51.489Z,41.00
2022-12-04T12:27:39.475Z,33.15
2022-12-04T12:30:18.572Z,36.40
2022-12-04T12:33:05.574Z,35.60
2022-12-04T12:35:49.866Z,34.58
2022-12-04T12:38:47.023Z,32.17
2022-12-04T12:41:25.089Z,34.05
2022-12-04T12:44:07.741Z,32.40
2022-12-04T12:46:54.426Z,31.80
2022-12-04T12:52:08.164Z,31.27
2022-12-04T12:54:49.813Z,32.95
2022-12-04T12:57:28.070Z,30.88
2022-12-04T13:00:22.540Z,32.13
2022-12-04T13:03:24.808Z,31.15
2022-12-04T13:05:59.123Z,29.95
2022-12-04T13:08:53.173Z,29.40
2022-12-04T13:11:27.876Z,47.17
2022-12-04T13:14:03.502Z,33.85
2022-12-04T13:16:35.173Z,32.70
2022-12-04T13:19:33.686Z,35.83
2022-12-04T13:22:09.487Z,23.75
2022-12-04T13:25:18.891Z,31.35
2022-12-04T13:28:04.475Z,26.30
2022-12-04T13:30:52.704Z,25.60
2022-12-04T13:33:57.733Z,29.10
2022-12-04T13:36:33.255Z,25.25
2022-12-04T13:39:03.381Z,29.48
2022-12-04T13:41:38.197Z,26.45
2022-12-04T13:44:29.094Z,24.52
2022-12-04T13:47:01.424Z,24.23
2022-12-04T13:49:38.549Z,30.17
2022-12-04T13:52:41.647Z,23.15
2022-12-04T13:55:29.138Z,33.40
2022-12-04T13:58:01.557Z,27.02
2022-12-04T14:00:35.000Z,29.08
2022-12-04T14:03:24.356Z,27.70
2022-12-04T14:05:53.316Z,30.13
2022-12-04T14:08:21.185Z,28.58
2022-12-04T14:11:19.808Z,30.77
2022-12-04T14:13:51.611Z,27.40
2022-12-04T14:16:38.036Z,30.40
2022-12-04T14:19:24.696Z,28.58
2022-12-04T14:24:38.632Z,24.73
2022-12-04T14:27:39.317Z,22.23
2022-12-04T14:30:54.648Z,23.33
2022-12-04T14:33:24.261Z,22.65
2022-12-04T14:39:53.547Z,29.30
2022-12-04T14:42:47.131Z,30.55
2022-12-04T14:45:56.375Z,26.13
2022-12-04T14:48:43.045Z,26.27
2022-12-04T14:51:29.913Z,29.52
2022-12-04T14:54:04.664Z,29.55
2022-12-04T14:56:32.823Z,28.55
2022-12-04T14:59:09.563Z,26.80
2022-12-04T15:01:39.025Z,25.02
2022-12-04T15:04:34.671Z,27.45
2022-12-04T15:07:13.211Z,26.67
2022-12-04T15:10:10.003Z,27.90
2022-12-04T15:12:53.149Z,25.53
2022-12-04T15:15:29.478Z,29.17
2022-12-04T15:18:19.855Z,28.17
2022-12-04T15:20:49.254Z,32.28
2022-12-04T15:23:48.041Z,26.35
2022-12-04T15:26:49.064Z,30.70
2022-12-04T15:32:39.949Z,26.50
2022-12-04T15:35:33.209Z,24.25
2022-12-04T15:38:00.366Z,30.37
2022-12-04T15:40:39.201Z,27.88
2022-12-04T15:43:19.630Z,27.23
2022-12-04T15:45:49.703Z,28.40
2022-12-04T15:48:32.048Z,27.55
2022-12-04T15:51:04.454Z,29.52
2022-12-04T15:54:08.020Z,27.98
2022-12-04T15:56:34.615Z,39.22
2022-12-04T15:59:19.126Z,29.25
2022-12-04T16:01:48.471Z,29.00
2022-12-04T16:04:23.199Z,29.83
2022-12-04T16:06:53.805Z,25.05
2022-12-04T16:09:34.327Z,27.60
2022-12-04T16:12:18.681Z,30.70
2022-12-04T16:14:52.197Z,24.55
2022-12-04T16:17:31.550Z,31.17
2022-12-04T16:19:59.617Z,27.17
2022-12-04T16:22:33.502Z,28.23
2022-12-04T16:25:00.692Z,31.90
2022-12-04T16:27:53.944Z,28.67
2022-12-04T16:30:21.454Z,28.25
2022-12-04T16:32:49.231Z,23.80
2022-12-04T16:35:19.080Z,31.65
2022-12-04T16:37:46.448Z,26.90
2022-12-04T16:40:25.033Z,27.17
2022-12-04T16:43:00.302Z,29.90
2022-12-04T16:45:38.697Z,33.90
2022-12-04T16:48:08.372Z,33.53
2022-12-04T16:50:37.884Z,32.35
2022-12-04T16:53:08.126Z,32.55
2022-12-04T16:55:39.734Z,29.80
2022-12-04T16:58:14.379Z,31.15
2022-12-04T17:00:44.621Z,30.10
2022-12-04T17:03:29.451Z,32.60
2022-12-04T17:06:03.149Z,30.48
2022-12-04T17:08:47.209Z,31.23
2022-12-04T17:11:23.996Z,35.30
2022-12-04T17:13:51.438Z,30.13
2022-12-04T17:16:23.148Z,30.60
2022-12-04T17:18:54.688Z,31.27
2022-12-04T17:21:24.377Z,31.77
2022-12-04T17:23:59.689Z,33.28
2022-12-04T17:26:35.002Z,34.22
2022-12-04T17:29:04.375Z,34.72
2022-12-04T17:31:33.188Z,32.70
2022-12-04T17:33:59.964Z,30.10
2022-12-04T17:36:29.173Z,35.35
2022-12-04T17:39:33.995Z,25.80
2022-12-04T17:42:04.842Z,28.77
2022-12-04T17:47:48.177Z,29.30
2022-12-04T17:50:14.949Z,28.13
2022-12-04T17:52:51.814Z,29.77
2022-12-04T17:55:38.583Z,30.80
2022-12-04T17:58:07.744Z,26.23
2022-12-04T18:00:34.509Z,30.42
2022-12-04T18:03:04.379Z,34.30
2022-12-04T18:05:37.659Z,26.73
2022-12-04T18:08:04.430Z,32.63
2022-12-04T18:10:32.962Z,31.60
2022-12-04T18:13:03.090Z,41.50
2022-12-04T18:15:52.340Z,43.42
2022-12-04T18:18:23.300Z,31.75
2022-12-04T18:21:12.367Z,43.25
2022-12-04T18:23:47.476Z,35.13
2022-12-04T18:26:28.850Z,42.20
2022-12-04T18:28:56.953Z,35.75
2022-12-04T18:31:26.503Z,39.72
2022-12-04T18:33:58.861Z,38.63
2022-12-04T18:36:29.544Z,35.05
2022-12-04T18:39:04.710Z,38.05
2022-12-04T18:41:32.981Z,38.50
2022-12-04T18:43:59.541Z,33.58
2022-12-04T18:46:29.153Z,42.28
2022-12-04T18:48:58.879Z,36.83
2022-12-04T18:51:48.967Z,51.33
2022-12-04T18:54:28.212Z,39.63
2022-12-04T18:56:59.762Z,41.30
2022-12-04T18:59:43.287Z,39.40
2022-12-04T19:02:13.851Z,41.85
2022-12-04T19:05:08.095Z,44.83
2022-12-04T19:07:34.719Z,39.03
2022-12-04T19:10:21.610Z,44.60
2022-12-04T19:13:19.990Z,41.60
2022-12-04T19:15:52.983Z,50.13
2022-12-04T19:18:33.888Z,46.08
2022-12-04T19:21:28.888Z,42.00
2022-12-04T19:23:59.734Z,42.00
2022-12-04T19:26:56.549Z,43.13
2022-12-04T19:29:24.356Z,37.42
2022-12-04T19:31:56.217Z,37.15
2022-12-04T19:42:44.307Z,42.88
2022-12-04T19:45:20.303Z,43.08
2022-12-04T19:47:49.542Z,42.60
2022-12-04T19:50:17.948Z,37.00
2022-12-04T19:52:53.402Z,39.13
2022-12-04T19:55:24.458Z,36.55
2022-12-04T19:57:52.947Z,44.60
2022-12-04T20:00:39.504Z,43.50
2022-12-04T20:05:44.870Z,34.35
2022-12-04T20:10:39.116Z,42.22
2022-12-04T20:13:08.391Z,39.58
2022-12-04T20:15:39.427Z,38.00
2022-12-04T20:18:13.112Z,37.38
2022-12-04T20:20:48.910Z,41.10
2022-12-04T20:23:19.611Z,35.92
2022-12-04T20:25:58.662Z,38.85
2022-12-04T20:28:29.685Z,37.83
2022-12-04T20:30:59.950Z,35.78
2022-12-04T20:34:27.660Z,39.05
2022-12-04T20:37:03.391Z,35.08
2022-12-04T20:40:37.940Z,31.50
2022-12-04T20:43:40.307Z,31.13
2022-12-04T20:47:19.832Z,34.58
2022-12-04T20:49:49.468Z,37.28
2022-12-04T20:52:46.055Z,32.45
2022-12-04T20:55:19.985Z,41.55
2022-12-04T20:58:12.512Z,37.20
2022-12-04T21:03:54.472Z,38.72
2022-12-04T21:06:34.923Z,36.90
2022-12-04T21:09:19.572Z,39.53
2022-12-04T21:11:54.329Z,32.40
2022-12-04T21:14:53.380Z,31.27
2022-12-04T21:17:24.116Z,39.03
2022-12-04T21:20:07.706Z,31.48
2022-12-04T21:26:19.454Z,40.08
2022-12-04T21:28:53.735Z,38.20
2022-12-04T21:31:24.338Z,42.90
2022-12-04T21:33:58.027Z,37.22
2022-12-04T21:37:34.011Z,35.75
2022-12-04T21:42:33.207Z,31.42
2022-12-04T21:45:03.257Z,37.80
2022-12-04T21:47:31.785Z,36.65
2022-12-04T21:49:59.771Z,37.63
2022-12-04T21:52:29.451Z,35.90
2022-12-04T21:54:58.800Z,32.47
2022-12-04T21:57:29.487Z,35.40
2022-12-04T21:59:57.993Z,34.72
2022-12-04T22:02:25.432Z,35.83
2022-12-04T22:04:54.525Z,31.63
2022-12-04T22:07:22.608Z,39.28
2022-12-04T22:09:49.614Z,35.80
2022-12-04T22:12:49.108Z,36.80
2022-12-04T22:15:09.695Z,34.92
2022-12-04T22:17:39.687Z,36.25
2022-12-04T22:20:08.824Z,34.55
2022-12-04T22:22:37.108Z,31.38
2022-12-04T22:25:04.967Z,34.05
2022-12-04T22:27:33.349Z,29.88
2022-12-04T22:30:01.990Z,35.58
2022-12-04T22:32:29.622Z,32.45
2022-12-04T22:34:58.963Z,32.00
2022-12-04T22:37:26.639Z,34.13
2022-12-04T22:39:53.358Z,30.33
2022-12-04T22:42:23.029Z,30.13
2022-12-04T22:44:51.228Z,27.02
2022-12-04T22:47:19.663Z,33.55
2022-12-04T22:49:49.532Z,36.03
2022-12-04T22:52:18.501Z,31.05
2022-12-04T22:54:46.474Z,31.25
2022-12-04T22:57:14.055Z,28.63
2022-12-04T22:59:41.836Z,30.95
2022-12-04T23:02:09.596Z,26.55
2022-12-04T23:07:07.189Z,31.73
2022-12-04T23:09:34.352Z,29.27
2022-12-04T23:12:04.723Z,27.73
2022-12-04T23:14:38.229Z,30.35
2022-12-04T23:17:04.804Z,26.27
2022-12-04T23:19:34.191Z,24.60
2022-12-04T23:22:03.508Z,26.27
2022-12-04T23:24:32.846Z,27.40
2022-12-04T23:26:59.418Z,29.02
2022-12-04T23:29:51.559Z,29.92
2022-12-04T23:32:18.600Z,25.10
2022-12-04T23:34:47.087Z,25.85
2022-12-04T23:37:14.664Z,28.60
2022-12-04T23:39:43.145Z,25.60
2022-12-04T23:42:09.730Z,23.90
2022-12-04T23:44:38.734Z,23.55
2022-12-04T23:47:06.858Z,25.02
2022-12-04T23:49:33.819Z,22.42
2022-12-04T23:52:01.285Z,21.38
2022-12-04T23:54:31.771Z,23.30
2022-12-04T23:56:58.661Z,22.85
2022-12-04T23:59:26.774Z,21.73
